createdAt,value
2019-05-30T00:02:15.607Z,7.11
2019-05-30T00:07:37.333Z,7.23
2019-05-30T00:12:59.020Z,7.34
2019-05-30T00:18:20.741Z,7.43
2019-05-30T00:23:42.488Z,7.45
2019-05-30T00:29:04.591Z,7.48
2019-05-30T00:34:26.306Z,7.53
2019-05-30T00:39:47.992Z,7.49
2019-05-30T00:45:20.430Z,7.46
2019-05-30T00:50:34.254Z,7.25
2019-05-30T00:55:56.675Z,7.03
2019-05-30T01:01:18.637Z,6.73
2019-05-30T01:06:40.355Z,6.73
2019-05-30T01:12:03.093Z,6.71
2019-05-30T01:17:25.139Z,6.27
2019-05-30T01:22:46.809Z,5.64
2019-05-30T01:28:08.487Z,5.55
2019-05-30T01:33:30.167Z,5.30
2019-05-30T01:38:51.900Z,5.23
2019-05-30T01:44:13.618Z,5.34
2019-05-30T01:49:35.350Z,5.18
2019-05-30T01:54:58.410Z,5.01
2019-05-30T02:00:22.154Z,5.00
2019-05-30T02:05:44.081Z,4.91
2019-05-30T02:11:05.824Z,4.56
2019-05-30T02:16:27.559Z,4.62
2019-05-30T02:21:49.433Z,4.80
2019-05-30T02:27:11.188Z,4.66
2019-05-30T02:32:33.284Z,4.81
2019-05-30T02:37:55.027Z,4.83
2019-05-30T02:43:16.998Z,4.95
2019-05-30T02:48:57.179Z,4.63
2019-05-30T02:54:03.909Z,4.45
2019-05-30T02:59:25.646Z,4.41
2019-05-30T03:04:47.414Z,4.65
2019-05-30T03:10:14.596Z,4.62
2019-05-30T03:15:34.605Z,4.57
2019-05-30T03:20:56.414Z,4.71
2019-05-30T03:26:18.144Z,4.82
2019-05-30T03:31:42.958Z,4.93
2019-05-30T03:37:08.700Z,5.15
2019-05-30T03:42:28.199Z,5.45
2019-05-30T03:47:53.884Z,5.63
2019-05-30T03:53:16.484Z,5.80
2019-05-30T03:58:55.060Z,5.96
2019-05-30T04:04:21.617Z,6.01
2019-05-30T04:09:45.644Z,6.10
2019-05-30T04:15:17.154Z,6.51
2019-05-30T04:20:38.611Z,6.84
2019-05-30T04:26:00.984Z,7.17
2019-05-30T04:31:23.049Z,7.56
2019-05-30T04:36:44.751Z,7.83
2019-05-30T04:42:06.461Z,8.20
2019-05-30T04:47:28.201Z,8.48
2019-05-30T04:52:49.921Z,8.78
2019-05-30T04:58:13.426Z,9.14
2019-05-30T05:03:45.131Z,9.47
2019-05-30T05:08:58.620Z,9.86
2019-05-30T05:14:20.600Z,10.17
2019-05-30T05:19:42.468Z,10.44
2019-05-30T05:25:04.140Z,10.61
2019-05-30T05:30:26.600Z,10.72
2019-05-30T05:35:48.387Z,10.93
2019-05-30T05:41:10.244Z,11.15
2019-05-30T05:46:32.138Z,11.39
2019-05-30T05:51:53.820Z,11.46
2019-05-30T05:57:16.669Z,11.65
2019-05-30T06:02:38.637Z,11.85
2019-05-30T06:08:00.342Z,12.16
2019-05-30T06:13:23.002Z,12.28
2019-05-30T06:18:44.912Z,12.45
2019-05-30T06:24:06.593Z,12.60
2019-05-30T06:29:28.446Z,12.65
2019-05-30T06:34:50.603Z,12.87
2019-05-30T06:40:12.337Z,12.95
2019-05-30T06:45:34.588Z,12.91
2019-05-30T06:50:56.315Z,12.98
2019-05-30T06:56:17.999Z,13.10
2019-05-30T07:01:39.688Z,13.34
2019-05-30T07:07:01.523Z,13.26
2019-05-30T07:12:23.535Z,13.29
2019-05-30T07:17:46.087Z,13.31
2019-05-30T07:23:07.790Z,13.23
2019-05-30T07:28:29.936Z,13.06
2019-05-30T07:33:51.933Z,13.25
2019-05-30T07:39:14.120Z,13.66
2019-05-30T07:44:35.846Z,13.93
2019-05-30T07:49:57.590Z,14.36
2019-05-30T07:55:21.160Z,14.44
2019-05-30T08:00:43.172Z,14.62
2019-05-30T08:06:04.903Z,14.94
2019-05-30T08:11:26.861Z,14.70
2019-05-30T08:16:48.629Z,14.59
2019-05-30T08:22:10.369Z,15.25
2019-05-30T08:27:32.411Z,15.39
2019-05-30T08:32:54.404Z,15.44
2019-05-30T08:38:16.419Z,15.56
2019-05-30T08:43:38.274Z,15.71
2019-05-30T08:49:01.840Z,16.00
2019-05-30T08:54:23.567Z,16.32
2019-05-30T08:59:45.535Z,16.51
2019-05-30T09:05:07.348Z,16.28
2019-05-30T09:10:29.232Z,16.45
2019-05-30T09:15:51.081Z,16.77
2019-05-30T09:21:12.864Z,16.57
2019-05-30T09:26:34.605Z,16.40
2019-05-30T09:31:56.458Z,16.88
2019-05-30T09:37:18.234Z,17.29
2019-05-30T09:42:41.209Z,17.23
2019-05-30T09:48:03.538Z,17.55
2019-05-30T09:53:25.272Z,17.48
2019-05-30T09:58:47.747Z,17.41
2019-05-30T10:04:10.157Z,17.71
2019-05-30T10:09:31.985Z,17.70
2019-05-30T10:14:57.095Z,17.68
2019-05-30T10:20:18.455Z,17.60
2019-05-30T10:25:40.161Z,18.07
2019-05-30T10:31:01.983Z,17.46
2019-05-30T10:36:23.695Z,18.05
2019-05-30T10:41:46.242Z,18.33
2019-05-30T10:47:08.798Z,17.82
2019-05-30T10:52:30.505Z,18.43
2019-05-30T10:57:56.210Z,18.83
2019-05-30T11:03:15.824Z,18.18
2019-05-30T11:08:42.874Z,18.21
2019-05-30T11:14:04.575Z,19.10
2019-05-30T11:19:26.310Z,19.20
2019-05-30T11:24:48.355Z,19.15
2019-05-30T11:30:13.696Z,19.26
2019-05-30T11:35:36.243Z,19.24
2019-05-30T11:40:59.597Z,19.32
2019-05-30T11:46:21.574Z,19.46
2019-05-30T11:51:43.365Z,19.99
2019-05-30T11:57:05.097Z,19.93
2019-05-30T12:02:26.813Z,20.29
2019-05-30T12:07:48.491Z,20.80
2019-05-30T12:13:10.224Z,20.89
2019-05-30T12:18:31.938Z,20.50
2019-05-30T12:23:54.464Z,20.74
2019-05-30T12:29:17.131Z,20.72
2019-05-30T12:34:38.862Z,21.17
2019-05-30T12:40:00.696Z,21.74
2019-05-30T12:45:24.497Z,22.36
2019-05-30T12:50:46.551Z,23.06
2019-05-30T12:56:08.259Z,22.33
2019-05-30T13:01:30.033Z,22.55
2019-05-30T13:06:54.159Z,23.06
2019-05-30T13:12:15.695Z,22.99
2019-05-30T13:17:37.807Z,24.17
2019-05-30T13:23:00.679Z,24.09
2019-05-30T13:28:23.084Z,23.37
2019-05-30T13:33:44.907Z,23.11
2019-05-30T13:39:07.478Z,23.80
2019-05-30T13:44:29.423Z,24.08
2019-05-30T13:49:51.136Z,24.37
2019-05-30T13:55:13.556Z,24.78
2019-05-30T14:00:36.818Z,24.27
2019-05-30T14:05:59.879Z,25.02
2019-05-30T14:11:21.868Z,25.61
2019-05-30T14:16:43.564Z,25.85
2019-05-30T14:22:05.261Z,26.22
2019-05-30T14:27:27.064Z,26.94
2019-05-30T14:32:49.357Z,27.02
2019-05-30T14:38:11.058Z,27.27
2019-05-30T15:00:14.942Z,28.14
2019-05-30T15:05:36.661Z,27.92
2019-05-30T15:10:58.548Z,27.83
2019-05-30T15:16:20.324Z,28.71
2019-05-30T15:21:42.052Z,30.04
2019-05-30T15:27:03.779Z,30.46
2019-05-30T15:32:25.497Z,30.27
2019-05-30T15:37:47.320Z,30.06
2019-05-30T15:43:09.307Z,29.41
2019-05-30T15:48:31.302Z,29.92
2019-05-30T15:53:53.143Z,30.74
2019-05-30T15:59:15.808Z,31.49
2019-05-30T16:04:37.821Z,33.44
2019-05-30T16:10:00.226Z,33.64
2019-05-30T16:15:27.928Z,33.49
2019-05-30T16:20:49.689Z,33.49
2019-05-30T16:26:11.450Z,33.97
2019-05-30T16:31:33.268Z,34.42
2019-05-30T16:36:54.952Z,34.36
2019-05-30T16:42:16.889Z,34.46
2019-05-30T16:47:38.744Z,34.58
2019-05-30T16:53:00.515Z,35.51
2019-05-30T16:58:23.783Z,35.05
2019-05-30T17:03:45.573Z,34.79
2019-05-30T17:09:07.271Z,34.79
2019-05-30T17:14:28.992Z,34.00
2019-05-30T17:19:50.706Z,34.28
2019-05-30T17:25:12.571Z,34.27
2019-05-30T17:30:35.278Z,34.75
2019-05-30T17:35:57.456Z,34.29
2019-05-30T17:41:19.185Z,34.37
2019-05-30T17:46:41.309Z,34.25
2019-05-30T17:52:02.996Z,33.58
2019-05-30T17:57:25.982Z,32.99
2019-05-30T18:02:47.725Z,32.49
2019-05-30T18:08:09.459Z,31.91
2019-05-30T18:13:31.308Z,29.70
2019-05-30T18:18:53.057Z,27.93
2019-05-30T18:24:14.768Z,26.84
2019-05-30T18:29:36.514Z,25.77
2019-05-30T18:34:58.338Z,24.24
2019-05-30T18:40:22.732Z,22.93
2019-05-30T18:45:58.499Z,21.71
2019-05-30T18:51:20.890Z,20.85
2019-05-30T18:56:42.775Z,20.07
2019-05-30T19:02:04.645Z,19.60
2019-05-30T19:07:26.776Z,19.00
2019-05-30T19:12:48.530Z,18.30
2019-05-30T19:18:10.580Z,18.09
2019-05-30T19:23:32.345Z,17.55
2019-05-30T19:28:54.156Z,17.48
2019-05-30T19:34:17.372Z,17.36
2019-05-30T19:39:39.153Z,16.96
2019-05-30T19:45:01.069Z,16.45
2019-05-30T19:50:26.594Z,16.28
2019-05-30T19:55:48.291Z,16.07
2019-05-30T20:01:10.046Z,16.11
2019-05-30T20:06:32.507Z,16.13
2019-05-30T20:12:03.282Z,15.75
2019-05-30T20:17:18.050Z,15.73
2019-05-30T20:22:40.252Z,15.79
2019-05-30T20:28:03.092Z,15.58
2019-05-30T20:33:25.034Z,15.63
2019-05-30T20:38:47.072Z,15.39
2019-05-30T20:44:08.878Z,15.23
2019-05-30T20:49:30.620Z,15.18
2019-05-30T20:54:52.501Z,15.22
2019-05-30T21:00:15.705Z,15.11
2019-05-30T21:05:37.838Z,15.08
2019-05-30T21:11:03.502Z,15.02
2019-05-30T21:16:27.124Z,14.98
2019-05-30T21:21:48.859Z,14.81
2019-05-30T21:27:10.706Z,14.52
2019-05-30T21:32:32.428Z,14.24
2019-05-30T21:37:54.133Z,14.15
2019-05-30T21:43:15.949Z,14.10
2019-05-30T21:48:38.781Z,14.20
2019-05-30T21:54:01.209Z,14.00
2019-05-30T21:59:22.940Z,13.81
2019-05-30T22:04:44.655Z,13.70
2019-05-30T22:10:06.369Z,13.72
2019-05-30T22:15:28.214Z,13.81
2019-05-30T22:20:49.991Z,13.55
2019-05-30T22:26:11.711Z,13.33
2019-05-30T22:31:33.591Z,12.89
2019-05-30T22:36:55.281Z,12.75
2019-05-30T22:42:17.078Z,12.82
2019-05-30T22:47:38.868Z,12.97
2019-05-30T22:53:00.723Z,13.04
2019-05-30T22:58:22.574Z,13.10
2019-05-30T23:03:45.032Z,13.11
2019-05-30T23:09:06.949Z,12.90
2019-05-30T23:14:28.646Z,12.87
2019-05-30T23:19:51.328Z,12.82
2019-05-30T23:25:14.270Z,12.57
2019-05-30T23:30:36.086Z,12.61
2019-05-30T23:35:58.575Z,12.61
2019-05-30T23:41:20.351Z,12.63
2019-05-30T23:46:42.131Z,12.52
2019-05-30T23:52:03.826Z,12.15
2019-05-30T23:57:25.531Z,12.11
